sensor_id;sensor_type;location;lat;lon;timestamp;temperature;humidity
3944;DHT22;1986;52.546;13.428;2023-04-03T00:01:11;1.30;99.90
3944;DHT22;1986;52.546;13.428;2023-04-03T00:03:38;1.30;99.90
3944;DHT22;1986;52.546;13.428;2023-04-03T00:06:06;1.20;99.90
3944;DHT22;1986;52.546;13.428;2023-04-03T00:08:36;1.20;99.90
3944;DHT22;1986;52.546;13.428;2023-04-03T00:11:04;1.20;99.90
3944;DHT22;1986;52.546;13.428;2023-04-03T00:13:32;1.10;99.90
3944;DHT22;1986;52.546;13.428;2023-04-03T00:15:59;1.20;99.90
3944;DHT22;1986;52.546;13.428;2023-04-03T00:18:27;1.10;99.90
3944;DHT22;1986;52.546;13.428;2023-04-03T00:20:54;1.10;99.90
3944;DHT22;1986;52.546;13.428;2023-04-03T00:23:21;1.10;99.90
3944;DHT22;1986;52.546;13.428;2023-04-03T00:25:52;1.10;99.90
3944;DHT22;1986;52.546;13.428;2023-04-03T00:28:20;1.00;99.90
3944;DHT22;1986;52.546;13.428;2023-04-03T00:30:48;1.00;99.90
3944;DHT22;1986;52.546;13.428;2023-04-03T00:33:15;1.00;99.90
3944;DHT22;1986;52.546;13.428;2023-04-03T00:35:43;1.00;99.90
3944;DHT22;1986;52.546;13.428;2023-04-03T00:38:10;1.00;99.90
3944;DHT22;1986;52.546;13.428;2023-04-03T00:40:39;1.00;99.90
3944;DHT22;1986;52.546;13.428;2023-04-03T00:43:13;1.00;99.90
3944;DHT22;1986;52.546;13.428;2023-04-03T00:45:41;1.00;99.90
3944;DHT22;1986;52.546;13.428;2023-04-03T00:48:11;1.00;99.90
3944;DHT22;1986;52.546;13.428;2023-04-03T00:50:42;1.00;99.90
3944;DHT22;1986;52.546;13.428;2023-04-03T00:53:13;0.90;99.90
3944;DHT22;1986;52.546;13.428;2023-04-03T00:55:41;0.90;99.90
3944;DHT22;1986;52.546;13.428;2023-04-03T00:58:12;0.90;99.90
3944;DHT22;1986;52.546;13.428;2023-04-03T01:00:46;0.90;99.90
3944;DHT22;1986;52.546;13.428;2023-04-03T01:03:15;0.90;99.90
3944;DHT22;1986;52.546;13.428;2023-04-03T01:05:43;0.90;99.90
3944;DHT22;1986;52.546;13.428;2023-04-03T01:08:10;0.90;99.90
3944;DHT22;1986;52.546;13.428;2023-04-03T01:10:38;0.80;99.90
3944;DHT22;1986;52.546;13.428;2023-04-03T01:13:23;0.80;99.90
3944;DHT22;1986;52.546;13.428;2023-04-03T01:15:51;0.80;99.90
3944;DHT22;1986;52.546;13.428;2023-04-03T01:18:18;0.80;99.90
3944;DHT22;1986;52.546;13.428;2023-04-03T01:21:08;0.80;99.90
3944;DHT22;1986;52.546;13.428;2023-04-03T01:23:54;0.80;99.90
3944;DHT22;1986;52.546;13.428;2023-04-03T01:26:24;0.80;99.90
3944;DHT22;1986;52.546;13.428;2023-04-03T01:28:54;0.70;99.90
3944;DHT22;1986;52.546;13.428;2023-04-03T01:31:24;0.70;99.90
3944;DHT22;1986;52.546;13.428;2023-04-03T01:33:54;0.70;99.90
3944;DHT22;1986;52.546;13.428;2023-04-03T01:36:24;0.70;99.90
3944;DHT22;1986;52.546;13.428;2023-04-03T01:38:52;0.70;99.90
3944;DHT22;1986;52.546;13.428;2023-04-03T01:41:19;0.70;99.90
3944;DHT22;1986;52.546;13.428;2023-04-03T01:43:47;0.60;99.90
3944;DHT22;1986;52.546;13.428;2023-04-03T01:46:14;0.60;99.90
3944;DHT22;1986;52.546;13.428;2023-04-03T01:48:41;0.60;99.90
3944;DHT22;1986;52.546;13.428;2023-04-03T01:51:10;0.60;99.90
3944;DHT22;1986;52.546;13.428;2023-04-03T01:53:37;0.60;99.90
3944;DHT22;1986;52.546;13.428;2023-04-03T01:56:06;0.80;99.90
3944;DHT22;1986;52.546;13.428;2023-04-03T01:58:33;0.90;99.90
3944;DHT22;1986;52.546;13.428;2023-04-03T02:01:00;0.90;99.90
3944;DHT22;1986;52.546;13.428;2023-04-03T02:03:29;1.00;99.90
3944;DHT22;1986;52.546;13.428;2023-04-03T02:05:57;1.00;99.90
3944;DHT22;1986;52.546;13.428;2023-04-03T02:08:26;1.00;99.90
3944;DHT22;1986;52.546;13.428;2023-04-03T02:10:53;0.90;99.90
3944;DHT22;1986;52.546;13.428;2023-04-03T02:13:20;0.90;99.90
3944;DHT22;1986;52.546;13.428;2023-04-03T02:15:47;0.90;99.90
3944;DHT22;1986;52.546;13.428;2023-04-03T02:18:14;0.90;99.90
3944;DHT22;1986;52.546;13.428;2023-04-03T02:20:42;0.80;99.90
3944;DHT22;1986;52.546;13.428;2023-04-03T02:23:09;0.80;99.90
3944;DHT22;1986;52.546;13.428;2023-04-03T02:25:38;0.80;99.90
3944;DHT22;1986;52.546;13.428;2023-04-03T02:28:05;0.80;99.90
3944;DHT22;1986;52.546;13.428;2023-04-03T02:30:32;0.80;99.90
3944;DHT22;1986;52.546;13.428;2023-04-03T02:32:59;0.80;99.90
3944;DHT22;1986;52.546;13.428;2023-04-03T02:35:26;0.70;99.90
3944;DHT22;1986;52.546;13.428;2023-04-03T02:37:53;0.80;99.90
3944;DHT22;1986;52.546;13.428;2023-04-03T02:40:20;0.70;99.90
3944;DHT22;1986;52.546;13.428;2023-04-03T02:42:49;0.70;99.90
3944;DHT22;1986;52.546;13.428;2023-04-03T02:45:18;0.70;99.90
3944;DHT22;1986;52.546;13.428;2023-04-03T02:47:48;0.70;99.90
3944;DHT22;1986;52.546;13.428;2023-04-03T02:50:19;0.70;99.90
3944;DHT22;1986;52.546;13.428;2023-04-03T02:52:46;0.70;99.90
3944;DHT22;1986;52.546;13.428;2023-04-03T02:55:15;0.70;99.90
3944;DHT22;1986;52.546;13.428;2023-04-03T02:57:43;0.60;99.90
3944;DHT22;1986;52.546;13.428;2023-04-03T03:00:12;0.60;99.90
3944;DHT22;1986;52.546;13.428;2023-04-03T03:02:40;0.60;99.90
3944;DHT22;1986;52.546;13.428;2023-04-03T03:05:13;0.60;99.90
3944;DHT22;1986;52.546;13.428;2023-04-03T03:07:41;0.60;99.90
3944;DHT22;1986;52.546;13.428;2023-04-03T03:10:09;0.60;99.90
3944;DHT22;1986;52.546;13.428;2023-04-03T03:12:37;0.50;99.90
3944;DHT22;1986;52.546;13.428;2023-04-03T03:15:04;0.50;99.90
3944;DHT22;1986;52.546;13.428;2023-04-03T03:17:33;0.50;99.90
3944;DHT22;1986;52.546;13.428;2023-04-03T03:20:02;0.50;99.90
3944;DHT22;1986;52.546;13.428;2023-04-03T03:22:32;0.50;99.90
3944;DHT22;1986;52.546;13.428;2023-04-03T03:25:09;0.50;99.90
3944;DHT22;1986;52.546;13.428;2023-04-03T03:27:36;0.40;99.90
3944;DHT22;1986;52.546;13.428;2023-04-03T03:30:07;0.40;99.90
3944;DHT22;1986;52.546;13.428;2023-04-03T03:32:35;0.40;99.90
3944;DHT22;1986;52.546;13.428;2023-04-03T03:35:05;0.30;99.90
3944;DHT22;1986;52.546;13.428;2023-04-03T03:37:33;0.20;99.90
3944;DHT22;1986;52.546;13.428;2023-04-03T03:40:00;0.20;99.90
3944;DHT22;1986;52.546;13.428;2023-04-03T03:42:28;0.20;99.90
3944;DHT22;1986;52.546;13.428;2023-04-03T03:44:55;0.20;99.90
3944;DHT22;1986;52.546;13.428;2023-04-03T03:47:22;0.10;99.90
3944;DHT22;1986;52.546;13.428;2023-04-03T03:49:54;0.10;99.90
3944;DHT22;1986;52.546;13.428;2023-04-03T03:52:31;0.00;99.90
3944;DHT22;1986;52.546;13.428;2023-04-03T03:55:01;0.10;99.90
3944;DHT22;1986;52.546;13.428;2023-04-03T03:57:31;0.10;99.90
3944;DHT22;1986;52.546;13.428;2023-04-03T03:59:58;0.10;99.90
3944;DHT22;1986;52.546;13.428;2023-04-03T04:02:27;0.00;99.90
3944;DHT22;1986;52.546;13.428;2023-04-03T04:04:56;0.10;99.90
3944;DHT22;1986;52.546;13.428;2023-04-03T04:07:23;0.00;99.90
3944;DHT22;1986;52.546;13.428;2023-04-03T04:09:53;-0.10;99.90
3944;DHT22;1986;52.546;13.428;2023-04-03T04:12:20;0.00;99.90
3944;DHT22;1986;52.546;13.428;2023-04-03T04:14:47;0.00;99.90
3944;DHT22;1986;52.546;13.428;2023-04-03T04:17:14;0.00;99.90
3944;DHT22;1986;52.546;13.428;2023-04-03T04:19:42;0.00;99.90
3944;DHT22;1986;52.546;13.428;2023-04-03T04:22:10;-0.10;99.90
3944;DHT22;1986;52.546;13.428;2023-04-03T04:24:39;0.00;99.90
3944;DHT22;1986;52.546;13.428;2023-04-03T04:27:07;0.00;99.90
3944;DHT22;1986;52.546;13.428;2023-04-03T04:29:34;-0.10;99.90
3944;DHT22;1986;52.546;13.428;2023-04-03T04:32:07;0.00;99.90
3944;DHT22;1986;52.546;13.428;2023-04-03T04:34:34;0.10;99.90
3944;DHT22;1986;52.546;13.428;2023-04-03T04:37:02;0.10;99.90
3944;DHT22;1986;52.546;13.428;2023-04-03T04:39:31;0.10;99.90
3944;DHT22;1986;52.546;13.428;2023-04-03T04:42:00;0.10;99.90
3944;DHT22;1986;52.546;13.428;2023-04-03T04:44:28;0.10;99.90
3944;DHT22;1986;52.546;13.428;2023-04-03T04:46:55;0.20;99.90
3944;DHT22;1986;52.546;13.428;2023-04-03T04:49:22;0.20;99.90
3944;DHT22;1986;52.546;13.428;2023-04-03T04:51:50;0.20;99.90
3944;DHT22;1986;52.546;13.428;2023-04-03T04:54:17;0.20;99.90
3944;DHT22;1986;52.546;13.428;2023-04-03T04:56:45;0.20;99.90
3944;DHT22;1986;52.546;13.428;2023-04-03T04:59:12;0.20;99.90
3944;DHT22;1986;52.546;13.428;2023-04-03T05:01:45;0.20;99.90
3944;DHT22;1986;52.546;13.428;2023-04-03T05:04:15;0.20;99.90
3944;DHT22;1986;52.546;13.428;2023-04-03T05:06:42;0.20;99.90
3944;DHT22;1986;52.546;13.428;2023-04-03T05:09:09;0.30;99.90
3944;DHT22;1986;52.546;13.428;2023-04-03T05:11:38;0.30;99.90
3944;DHT22;1986;52.546;13.428;2023-04-03T05:14:06;0.30;99.90
3944;DHT22;1986;52.546;13.428;2023-04-03T05:16:36;0.30;99.90
3944;DHT22;1986;52.546;13.428;2023-04-03T05:19:21;0.40;99.90
3944;DHT22;1986;52.546;13.428;2023-04-03T05:21:48;0.40;99.90
3944;DHT22;1986;52.546;13.428;2023-04-03T05:24:16;0.40;99.90
3944;DHT22;1986;52.546;13.428;2023-04-03T05:26:43;0.40;99.90
3944;DHT22;1986;52.546;13.428;2023-04-03T05:29:12;0.50;99.90
3944;DHT22;1986;52.546;13.428;2023-04-03T05:31:42;0.50;99.90
3944;DHT22;1986;52.546;13.428;2023-04-03T05:34:13;0.50;99.90
3944;DHT22;1986;52.546;13.428;2023-04-03T05:36:42;0.70;99.90
3944;DHT22;1986;52.546;13.428;2023-04-03T05:39:23;1.00;99.90
3944;DHT22;1986;52.546;13.428;2023-04-03T05:41:51;1.60;99.90
3944;DHT22;1986;52.546;13.428;2023-04-03T05:44:19;2.00;99.90
3944;DHT22;1986;52.546;13.428;2023-04-03T05:46:46;2.30;99.90
3944;DHT22;1986;52.546;13.428;2023-04-03T05:49:14;2.70;99.90
3944;DHT22;1986;52.546;13.428;2023-04-03T05:51:42;3.00;99.90
3944;DHT22;1986;52.546;13.428;2023-04-03T05:54:19;3.20;99.90
3944;DHT22;1986;52.546;13.428;2023-04-03T05:56:48;3.50;99.90
3944;DHT22;1986;52.546;13.428;2023-04-03T05:59:16;3.50;99.90
3944;DHT22;1986;52.546;13.428;2023-04-03T06:01:44;3.60;99.90
3944;DHT22;1986;52.546;13.428;2023-04-03T06:04:11;3.80;99.90
3944;DHT22;1986;52.546;13.428;2023-04-03T06:06:47;3.80;99.90
3944;DHT22;1986;52.546;13.428;2023-04-03T06:09:15;4.40;99.90
3944;DHT22;1986;52.546;13.428;2023-04-03T06:11:42;4.50;99.90
3944;DHT22;1986;52.546;13.428;2023-04-03T06:14:10;4.30;99.90
3944;DHT22;1986;52.546;13.428;2023-04-03T06:16:45;4.30;99.90
3944;DHT22;1986;52.546;13.428;2023-04-03T06:19:14;3.60;99.90
3944;DHT22;1986;52.546;13.428;2023-04-03T06:21:42;4.10;99.90
3944;DHT22;1986;52.546;13.428;2023-04-03T06:24:14;4.00;99.90
3944;DHT22;1986;52.546;13.428;2023-04-03T06:26:43;3.90;99.90
3944;DHT22;1986;52.546;13.428;2023-04-03T06:29:10;4.00;99.90
3944;DHT22;1986;52.546;13.428;2023-04-03T06:31:37;4.00;99.90
3944;DHT22;1986;52.546;13.428;2023-04-03T06:34:06;3.90;99.90
3944;DHT22;1986;52.546;13.428;2023-04-03T06:36:34;3.50;99.90
3944;DHT22;1986;52.546;13.428;2023-04-03T06:39:03;4.00;99.90
3944;DHT22;1986;52.546;13.428;2023-04-03T06:41:34;5.30;99.90
3944;DHT22;1986;52.546;13.428;2023-04-03T06:44:06;5.40;99.90
3944;DHT22;1986;52.546;13.428;2023-04-03T06:46:37;5.60;99.90
3944;DHT22;1986;52.546;13.428;2023-04-03T06:49:06;4.50;99.90
3944;DHT22;1986;52.546;13.428;2023-04-03T06:51:35;4.30;99.90
3944;DHT22;1986;52.546;13.428;2023-04-03T06:54:09;4.40;99.90
3944;DHT22;1986;52.546;13.428;2023-04-03T06:56:40;4.00;99.90
3944;DHT22;1986;52.546;13.428;2023-04-03T06:59:09;4.10;99.90
3944;DHT22;1986;52.546;13.428;2023-04-03T07:01:41;3.80;99.90
3944;DHT22;1986;52.546;13.428;2023-04-03T07:04:14;3.50;99.90
3944;DHT22;1986;52.546;13.428;2023-04-03T07:06:43;3.40;99.90
3944;DHT22;1986;52.546;13.428;2023-04-03T07:09:11;3.40;99.90
3944;DHT22;1986;52.546;13.428;2023-04-03T07:11:41;3.50;99.90
3944;DHT22;1986;52.546;13.428;2023-04-03T07:14:08;3.20;99.90
3944;DHT22;1986;52.546;13.428;2023-04-03T07:16:37;3.60;99.90
3944;DHT22;1986;52.546;13.428;2023-04-03T07:19:05;3.50;99.90
3944;DHT22;1986;52.546;13.428;2023-04-03T07:21:36;3.50;99.90
3944;DHT22;1986;52.546;13.428;2023-04-03T07:24:23;3.40;99.90
3944;DHT22;1986;52.546;13.428;2023-04-03T07:26:55;3.30;99.90
3944;DHT22;1986;52.546;13.428;2023-04-03T07:29:37;3.10;99.90
3944;DHT22;1986;52.546;13.428;2023-04-03T07:32:05;3.50;99.90
3944;DHT22;1986;52.546;13.428;2023-04-03T07:34:34;3.80;99.90
3944;DHT22;1986;52.546;13.428;2023-04-03T07:37:09;3.90;99.90
3944;DHT22;1986;52.546;13.428;2023-04-03T07:39:39;4.10;99.90
3944;DHT22;1986;52.546;13.428;2023-04-03T07:42:07;4.50;99.90
3944;DHT22;1986;52.546;13.428;2023-04-03T07:44:35;3.90;99.90
3944;DHT22;1986;52.546;13.428;2023-04-03T07:47:03;3.50;99.90
3944;DHT22;1986;52.546;13.428;2023-04-03T07:49:30;3.50;99.90
3944;DHT22;1986;52.546;13.428;2023-04-03T07:52:11;3.80;99.90
3944;DHT22;1986;52.546;13.428;2023-04-03T07:54:45;4.40;99.90
3944;DHT22;1986;52.546;13.428;2023-04-03T07:57:26;4.90;99.90
3944;DHT22;1986;52.546;13.428;2023-04-03T07:59:54;4.40;98.70
3944;DHT22;1986;52.546;13.428;2023-04-03T08:02:21;3.90;98.90
3944;DHT22;1986;52.546;13.428;2023-04-03T08:04:48;3.70;99.40
3944;DHT22;1986;52.546;13.428;2023-04-03T08:07:21;3.50;99.90
3944;DHT22;1986;52.546;13.428;2023-04-03T08:09:51;3.20;99.90
3944;DHT22;1986;52.546;13.428;2023-04-03T08:12:19;3.10;99.90
3944;DHT22;1986;52.546;13.428;2023-04-03T08:14:48;3.20;99.90
3944;DHT22;1986;52.546;13.428;2023-04-03T08:17:16;3.20;99.90
3944;DHT22;1986;52.546;13.428;2023-04-03T08:19:44;3.00;99.90
3944;DHT22;1986;52.546;13.428;2023-04-03T08:22:14;3.10;99.90
3944;DHT22;1986;52.546;13.428;2023-04-03T08:24:44;3.10;99.90
3944;DHT22;1986;52.546;13.428;2023-04-03T08:27:16;3.00;99.90
3944;DHT22;1986;52.546;13.428;2023-04-03T08:29:56;3.00;99.90
3944;DHT22;1986;52.546;13.428;2023-04-03T08:32:24;3.10;99.90
3944;DHT22;1986;52.546;13.428;2023-04-03T08:34:52;3.00;99.60
3944;DHT22;1986;52.546;13.428;2023-04-03T08:37:34;3.10;99.90
3944;DHT22;1986;52.546;13.428;2023-04-03T08:40:04;3.30;99.70
3944;DHT22;1986;52.546;13.428;2023-04-03T08:42:43;3.30;99.60
3944;DHT22;1986;52.546;13.428;2023-04-03T08:45:22;3.10;98.80
3944;DHT22;1986;52.546;13.428;2023-04-03T08:48:08;3.10;99.00
3944;DHT22;1986;52.546;13.428;2023-04-03T08:50:56;3.10;98.10
3944;DHT22;1986;52.546;13.428;2023-04-03T08:53:42;3.10;97.90
3944;DHT22;1986;52.546;13.428;2023-04-03T08:56:14;3.20;98.00
3944;DHT22;1986;52.546;13.428;2023-04-03T08:58:50;3.30;98.20
3944;DHT22;1986;52.546;13.428;2023-04-03T09:01:35;3.40;98.00
3944;DHT22;1986;52.546;13.428;2023-04-03T09:04:19;3.70;97.90
3944;DHT22;1986;52.546;13.428;2023-04-03T09:07:02;3.90;97.60
3944;DHT22;1986;52.546;13.428;2023-04-03T09:09:49;3.50;96.70
3944;DHT22;1986;52.546;13.428;2023-04-03T09:13:00;3.70;95.80
3944;DHT22;1986;52.546;13.428;2023-04-03T09:15:45;4.10;95.40
3944;DHT22;1986;52.546;13.428;2023-04-03T09:18:32;3.90;93.30
3944;DHT22;1986;52.546;13.428;2023-04-03T09:21:30;4.20;93.50
3944;DHT22;1986;52.546;13.428;2023-04-03T09:24:17;4.30;93.60
3944;DHT22;1986;52.546;13.428;2023-04-03T09:27:06;4.40;92.30
3944;DHT22;1986;52.546;13.428;2023-04-03T09:29:52;4.30;91.00
3944;DHT22;1986;52.546;13.428;2023-04-03T09:32:30;4.10;90.10
3944;DHT22;1986;52.546;13.428;2023-04-03T09:35:20;4.30;90.70
3944;DHT22;1986;52.546;13.428;2023-04-03T09:38:21;4.20;90.10
3944;DHT22;1986;52.546;13.428;2023-04-03T09:41:06;4.30;90.20
3944;DHT22;1986;52.546;13.428;2023-04-03T09:43:56;4.50;90.90
3944;DHT22;1986;52.546;13.428;2023-04-03T09:46:45;4.70;91.10
3944;DHT22;1986;52.546;13.428;2023-04-03T09:49:27;4.90;91.10
3944;DHT22;1986;52.546;13.428;2023-04-03T09:52:20;4.50;89.50
3944;DHT22;1986;52.546;13.428;2023-04-03T09:54:52;4.10;90.80
3944;DHT22;1986;52.546;13.428;2023-04-03T09:57:19;4.00;91.60
3944;DHT22;1986;52.546;13.428;2023-04-03T09:59:57;3.90;90.90
3944;DHT22;1986;52.546;13.428;2023-04-03T10:02:53;3.90;91.10
3944;DHT22;1986;52.546;13.428;2023-04-03T10:05:35;3.90;91.50
3944;DHT22;1986;52.546;13.428;2023-04-03T10:08:23;4.00;91.00
3944;DHT22;1986;52.546;13.428;2023-04-03T10:11:10;3.90;91.30
3944;DHT22;1986;52.546;13.428;2023-04-03T10:13:54;4.10;91.20
3944;DHT22;1986;52.546;13.428;2023-04-03T10:16:27;4.10;90.70
3944;DHT22;1986;52.546;13.428;2023-04-03T10:25:59;4.30;90.40
3944;DHT22;1986;52.546;13.428;2023-04-03T10:28:42;4.50;87.20
3944;DHT22;1986;52.546;13.428;2023-04-03T10:31:18;5.00;87.60
3944;DHT22;1986;52.546;13.428;2023-04-03T10:36:43;5.10;85.50
3944;DHT22;1986;52.546;13.428;2023-04-03T10:39:53;4.70;81.50
3944;DHT22;1986;52.546;13.428;2023-04-03T10:49:03;4.80;84.10
3944;DHT22;1986;52.546;13.428;2023-04-03T10:51:43;5.10;83.60
3944;DHT22;1986;52.546;13.428;2023-04-03T10:54:31;4.80;80.00
3944;DHT22;1986;52.546;13.428;2023-04-03T10:57:22;4.70;80.90
3944;DHT22;1986;52.546;13.428;2023-04-03T10:59:59;4.70;82.60
3944;DHT22;1986;52.546;13.428;2023-04-03T11:02:54;4.60;82.00
3944;DHT22;1986;52.546;13.428;2023-04-03T11:05:47;4.60;83.00
3944;DHT22;1986;52.546;13.428;2023-04-03T11:08:27;4.60;83.20
3944;DHT22;1986;52.546;13.428;2023-04-03T11:11:14;4.70;85.00
3944;DHT22;1986;52.546;13.428;2023-04-03T11:17:28;4.70;86.00
3944;DHT22;1986;52.546;13.428;2023-04-03T11:20:26;4.60;85.30
3944;DHT22;1986;52.546;13.428;2023-04-03T11:23:34;4.80;86.00
3944;DHT22;1986;52.546;13.428;2023-04-03T11:26:18;4.80;86.60
3944;DHT22;1986;52.546;13.428;2023-04-03T11:32:55;4.60;86.00
3944;DHT22;1986;52.546;13.428;2023-04-03T11:38:58;4.90;90.10
3944;DHT22;1986;52.546;13.428;2023-04-03T11:41:30;4.80;89.80
3944;DHT22;1986;52.546;13.428;2023-04-03T11:44:03;4.90;88.10
3944;DHT22;1986;52.546;13.428;2023-04-03T11:46:53;4.80;88.00
3944;DHT22;1986;52.546;13.428;2023-04-03T11:56:55;4.90;89.20
3944;DHT22;1986;52.546;13.428;2023-04-03T11:59:39;4.80;88.20
3944;DHT22;1986;52.546;13.428;2023-04-03T12:02:36;5.00;89.70
3944;DHT22;1986;52.546;13.428;2023-04-03T12:05:26;5.00;87.80
3944;DHT22;1986;52.546;13.428;2023-04-03T12:08:23;4.90;88.70
3944;DHT22;1986;52.546;13.428;2023-04-03T12:11:15;5.10;89.60
3944;DHT22;1986;52.546;13.428;2023-04-03T12:14:04;4.90;88.80
3944;DHT22;1986;52.546;13.428;2023-04-03T12:16:47;4.80;88.00
3944;DHT22;1986;52.546;13.428;2023-04-03T12:19:34;4.80;89.90
3944;DHT22;1986;52.546;13.428;2023-04-03T12:22:17;4.60;89.80
3944;DHT22;1986;52.546;13.428;2023-04-03T12:24:48;4.80;91.10
3944;DHT22;1986;52.546;13.428;2023-04-03T12:27:39;5.00;91.80
3944;DHT22;1986;52.546;13.428;2023-04-03T12:30:39;5.40;91.50
3944;DHT22;1986;52.546;13.428;2023-04-03T12:33:28;5.90;91.00
3944;DHT22;1986;52.546;13.428;2023-04-03T12:36:18;6.00;87.80
3944;DHT22;1986;52.546;13.428;2023-04-03T12:41:51;5.60;80.30
3944;DHT22;1986;52.546;13.428;2023-04-03T12:44:48;5.90;79.80
3944;DHT22;1986;52.546;13.428;2023-04-03T12:47:55;6.00;79.70
3944;DHT22;1986;52.546;13.428;2023-04-03T12:51:14;5.80;78.80
3944;DHT22;1986;52.546;13.428;2023-04-03T12:54:32;5.50;82.00
3944;DHT22;1986;52.546;13.428;2023-04-03T12:57:48;5.20;82.50
3944;DHT22;1986;52.546;13.428;2023-04-03T13:03:31;5.10;84.60
3944;DHT22;1986;52.546;13.428;2023-04-03T13:06:09;4.90;84.60
3944;DHT22;1986;52.546;13.428;2023-04-03T13:09:04;4.80;85.30
3944;DHT22;1986;52.546;13.428;2023-04-03T13:11:37;4.70;86.10
3944;DHT22;1986;52.546;13.428;2023-04-03T13:14:15;4.80;87.70
3944;DHT22;1986;52.546;13.428;2023-04-03T13:16:53;4.80;88.40
3944;DHT22;1986;52.546;13.428;2023-04-03T13:19:28;4.80;89.80
3944;DHT22;1986;52.546;13.428;2023-04-03T13:21:59;5.00;90.40
3944;DHT22;1986;52.546;13.428;2023-04-03T13:24:28;5.20;90.60
3944;DHT22;1986;52.546;13.428;2023-04-03T13:26:57;5.50;89.90
3944;DHT22;1986;52.546;13.428;2023-04-03T13:29:31;5.80;88.60
3944;DHT22;1986;52.546;13.428;2023-04-03T13:31:59;5.60;86.80
3944;DHT22;1986;52.546;13.428;2023-04-03T13:34:38;5.60;86.30
3944;DHT22;1986;52.546;13.428;2023-04-03T13:37:23;5.30;84.60
3944;DHT22;1986;52.546;13.428;2023-04-03T13:40:01;5.20;85.60
3944;DHT22;1986;52.546;13.428;2023-04-03T13:42:32;5.10;86.10
3944;DHT22;1986;52.546;13.428;2023-04-03T13:45:26;5.40;87.90
3944;DHT22;1986;52.546;13.428;2023-04-03T13:48:09;5.70;87.50
3944;DHT22;1986;52.546;13.428;2023-04-03T13:50:54;5.70;87.20
3944;DHT22;1986;52.546;13.428;2023-04-03T13:53:23;5.90;87.30
3944;DHT22;1986;52.546;13.428;2023-04-03T13:56:05;6.00;87.20
3944;DHT22;1986;52.546;13.428;2023-04-03T13:58:34;6.00;86.50
3944;DHT22;1986;52.546;13.428;2023-04-03T14:01:10;6.00;86.50
3944;DHT22;1986;52.546;13.428;2023-04-03T14:03:55;6.20;87.30
3944;DHT22;1986;52.546;13.428;2023-04-03T14:06:25;5.80;87.50
3944;DHT22;1986;52.546;13.428;2023-04-03T14:08:52;5.90;88.60
3944;DHT22;1986;52.546;13.428;2023-04-03T14:11:30;6.10;87.70
3944;DHT22;1986;52.546;13.428;2023-04-03T14:14:01;6.10;87.00
3944;DHT22;1986;52.546;13.428;2023-04-03T14:16:32;6.20;85.60
3944;DHT22;1986;52.546;13.428;2023-04-03T14:19:04;6.20;84.50
3944;DHT22;1986;52.546;13.428;2023-04-03T14:21:35;6.20;85.30
3944;DHT22;1986;52.546;13.428;2023-04-03T14:24:06;6.20;85.90
3944;DHT22;1986;52.546;13.428;2023-04-03T14:26:34;6.00;86.50
3944;DHT22;1986;52.546;13.428;2023-04-03T14:29:02;6.00;87.40
3944;DHT22;1986;52.546;13.428;2023-04-03T14:31:30;6.40;87.40
3944;DHT22;1986;52.546;13.428;2023-04-03T14:33:58;6.60;87.10
3944;DHT22;1986;52.546;13.428;2023-04-03T14:36:26;6.20;86.70
3944;DHT22;1986;52.546;13.428;2023-04-03T14:38:57;5.70;87.10
3944;DHT22;1986;52.546;13.428;2023-04-03T14:41:28;5.60;89.80
3944;DHT22;1986;52.546;13.428;2023-04-03T14:43:58;5.60;90.20
3944;DHT22;1986;52.546;13.428;2023-04-03T14:46:42;5.50;89.90
3944;DHT22;1986;52.546;13.428;2023-04-03T14:49:13;5.50;90.80
3944;DHT22;1986;52.546;13.428;2023-04-03T14:51:41;5.60;91.50
3944;DHT22;1986;52.546;13.428;2023-04-03T14:54:13;5.80;91.60
3944;DHT22;1986;52.546;13.428;2023-04-03T14:56:41;5.80;92.10
3944;DHT22;1986;52.546;13.428;2023-04-03T14:59:12;5.90;91.60
3944;DHT22;1986;52.546;13.428;2023-04-03T15:01:40;5.90;91.90
3944;DHT22;1986;52.546;13.428;2023-04-03T15:04:11;5.80;92.00
3944;DHT22;1986;52.546;13.428;2023-04-03T15:06:38;5.60;92.60
3944;DHT22;1986;52.546;13.428;2023-04-03T15:09:16;5.60;92.80
3944;DHT22;1986;52.546;13.428;2023-04-03T15:11:45;5.50;93.10
3944;DHT22;1986;52.546;13.428;2023-04-03T15:14:12;5.50;93.70
3944;DHT22;1986;52.546;13.428;2023-04-03T15:16:41;5.40;94.10
3944;DHT22;1986;52.546;13.428;2023-04-03T15:19:09;5.30;94.60
3944;DHT22;1986;52.546;13.428;2023-04-03T15:21:36;5.30;95.10
3944;DHT22;1986;52.546;13.428;2023-04-03T15:24:04;5.30;95.10
3944;DHT22;1986;52.546;13.428;2023-04-03T15:26:33;5.00;95.60
3944;DHT22;1986;52.546;13.428;2023-04-03T15:29:01;4.90;96.80
3944;DHT22;1986;52.546;13.428;2023-04-03T15:31:29;4.90;97.70
3944;DHT22;1986;52.546;13.428;2023-04-03T15:33:57;5.10;97.80
3944;DHT22;1986;52.546;13.428;2023-04-03T15:36:27;4.80;97.40
3944;DHT22;1986;52.546;13.428;2023-04-03T15:38:55;4.70;97.80
3944;DHT22;1986;52.546;13.428;2023-04-03T15:41:21;4.70;98.10
3944;DHT22;1986;52.546;13.428;2023-04-03T15:43:59;4.60;98.40
3944;DHT22;1986;52.546;13.428;2023-04-03T15:46:26;4.60;98.60
3944;DHT22;1986;52.546;13.428;2023-04-03T15:48:54;4.50;98.60
3944;DHT22;1986;52.546;13.428;2023-04-03T15:51:22;4.70;99.50
3944;DHT22;1986;52.546;13.428;2023-04-03T15:53:49;4.90;98.70
3944;DHT22;1986;52.546;13.428;2023-04-03T15:56:16;4.90;98.20
3944;DHT22;1986;52.546;13.428;2023-04-03T15:58:43;4.90;97.70
3944;DHT22;1986;52.546;13.428;2023-04-03T16:01:12;4.60;97.70
3944;DHT22;1986;52.546;13.428;2023-04-03T16:03:40;4.40;98.30
3944;DHT22;1986;52.546;13.428;2023-04-03T16:06:19;4.40;99.10
3944;DHT22;1986;52.546;13.428;2023-04-03T16:08:53;4.40;99.70
3944;DHT22;1986;52.546;13.428;2023-04-03T16:11:25;4.60;99.90
3944;DHT22;1986;52.546;13.428;2023-04-03T16:13:58;4.80;99.90
3944;DHT22;1986;52.546;13.428;2023-04-03T16:16:29;5.10;99.80
3944;DHT22;1986;52.546;13.428;2023-04-03T16:18:59;5.30;99.00
3944;DHT22;1986;52.546;13.428;2023-04-03T16:21:27;5.10;98.10
3944;DHT22;1986;52.546;13.428;2023-04-03T16:23:56;5.20;98.40
3944;DHT22;1986;52.546;13.428;2023-04-03T16:26:23;5.40;98.40
3944;DHT22;1986;52.546;13.428;2023-04-03T16:28:51;5.60;97.70
3944;DHT22;1986;52.546;13.428;2023-04-03T16:31:20;5.60;97.40
3944;DHT22;1986;52.546;13.428;2023-04-03T16:33:49;5.60;97.00
3944;DHT22;1986;52.546;13.428;2023-04-03T16:36:16;5.50;97.30
3944;DHT22;1986;52.546;13.428;2023-04-03T16:38:43;5.50;97.40
3944;DHT22;1986;52.546;13.428;2023-04-03T16:41:11;5.40;97.30
3944;DHT22;1986;52.546;13.428;2023-04-03T16:43:38;5.30;97.50
3944;DHT22;1986;52.546;13.428;2023-04-03T16:46:06;5.30;97.20
3944;DHT22;1986;52.546;13.428;2023-04-03T16:48:36;5.20;97.10
3944;DHT22;1986;52.546;13.428;2023-04-03T16:51:05;4.90;97.40
3944;DHT22;1986;52.546;13.428;2023-04-03T16:53:32;4.90;97.90
3944;DHT22;1986;52.546;13.428;2023-04-03T16:56:01;4.90;98.30
3944;DHT22;1986;52.546;13.428;2023-04-03T16:58:28;4.90;98.10
3944;DHT22;1986;52.546;13.428;2023-04-03T17:00:56;5.00;98.50
3944;DHT22;1986;52.546;13.428;2023-04-03T17:03:38;4.60;98.60
3944;DHT22;1986;52.546;13.428;2023-04-03T17:06:07;4.60;99.70
3944;DHT22;1986;52.546;13.428;2023-04-03T17:08:48;4.40;99.90
3944;DHT22;1986;52.546;13.428;2023-04-03T17:11:15;4.30;99.90
3944;DHT22;1986;52.546;13.428;2023-04-03T17:13:42;4.20;99.90
3944;DHT22;1986;52.546;13.428;2023-04-03T17:16:13;4.30;99.90
3944;DHT22;1986;52.546;13.428;2023-04-03T17:18:45;4.30;99.90
3944;DHT22;1986;52.546;13.428;2023-04-03T17:24:17;4.40;99.90
3944;DHT22;1986;52.546;13.428;2023-04-03T17:26:45;4.60;99.90